sensor_id;sensor_type;location;lat;lon;timestamp;pressure;altitude;pressure_sealevel;temperature
20867;BMP280;10593;48.398;10.698;2023-03-04T00:01:53;96583.91;;;9.85
20867;BMP280;10593;48.398;10.698;2023-03-04T00:04:19;96583.09;;;9.83
20867;BMP280;10593;48.398;10.698;2023-03-04T00:06:44;96584.78;;;9.81
20867;BMP280;10593;48.398;10.698;2023-03-04T00:09:10;96581.38;;;9.80
20867;BMP280;10593;48.398;10.698;2023-03-04T00:11:36;96584.81;;;9.78
20867;BMP280;10593;48.398;10.698;2023-03-04T00:14:01;96585.69;;;9.78
20867;BMP280;10593;48.398;10.698;2023-03-04T00:16:27;96584.84;;;9.75
20867;BMP280;10593;48.398;10.698;2023-03-04T00:18:54;96583.16;;;9.74
20867;BMP280;10593;48.398;10.698;2023-03-04T00:21:21;96596.00;;;9.72
20867;BMP280;10593;48.398;10.698;2023-03-04T00:23:47;96584.91;;;9.70
20867;BMP280;10593;48.398;10.698;2023-03-04T00:26:13;96587.50;;;9.69
20867;BMP280;10593;48.398;10.698;2023-03-04T00:28:39;96592.63;;;9.67
20867;BMP280;10593;48.398;10.698;2023-03-04T00:31:09;96592.63;;;9.67
20867;BMP280;10593;48.398;10.698;2023-03-04T00:33:35;96588.38;;;9.65
20867;BMP280;10593;48.398;10.698;2023-03-04T00:36:01;96588.41;;;9.63
20867;BMP280;10593;48.398;10.698;2023-03-04T00:38:27;96587.56;;;9.61
20867;BMP280;10593;48.398;10.698;2023-03-04T00:40:53;96590.97;;;9.60
20867;BMP280;10593;48.398;10.698;2023-03-04T00:43:20;96590.13;;;9.58
20867;BMP280;10593;48.398;10.698;2023-03-04T00:45:45;96590.16;;;9.57
20867;BMP280;10593;48.398;10.698;2023-03-04T00:48:11;96587.59;;;9.55
20867;BMP280;10593;48.398;10.698;2023-03-04T00:50:37;96591.91;;;9.55
20867;BMP280;10593;48.398;10.698;2023-03-04T00:53:04;96592.75;;;9.52
20867;BMP280;10593;48.398;10.698;2023-03-04T00:55:29;96583.38;;;9.51
20867;BMP280;10593;48.398;10.698;2023-03-04T00:57:55;96586.81;;;9.49
20867;BMP280;10593;48.398;10.698;2023-03-04T01:00:21;96572.28;;;9.48
20867;BMP280;10593;48.398;10.698;2023-03-04T01:02:47;96579.13;;;9.46
20867;BMP280;10593;48.398;10.698;2023-03-04T01:05:13;96577.44;;;9.45
20867;BMP280;10593;48.398;10.698;2023-03-04T01:07:39;96580.88;;;9.44
20867;BMP280;10593;48.398;10.698;2023-03-04T01:10:07;96572.34;;;9.42
20867;BMP280;10593;48.398;10.698;2023-03-04T01:12:33;96565.47;;;9.41
20867;BMP280;10593;48.398;10.698;2023-03-04T01:14:59;96574.06;;;9.38
20867;BMP280;10593;48.398;10.698;2023-03-04T01:17:25;96583.47;;;9.38
20867;BMP280;10593;48.398;10.698;2023-03-04T01:19:50;96575.81;;;9.36
20867;BMP280;10593;48.398;10.698;2023-03-04T01:22:16;96569.84;;;9.34
20867;BMP280;10593;48.398;10.698;2023-03-04T01:24:44;96564.72;;;9.33
20867;BMP280;10593;48.398;10.698;2023-03-04T01:27:10;96563.00;;;9.32
20867;BMP280;10593;48.398;10.698;2023-03-04T01:29:36;96568.13;;;9.32
20867;BMP280;10593;48.398;10.698;2023-03-04T01:32:01;96563.88;;;9.29
20867;BMP280;10593;48.398;10.698;2023-03-04T01:34:27;96556.22;;;9.28
20867;BMP280;10593;48.398;10.698;2023-03-04T01:36:53;96556.22;;;9.28
20867;BMP280;10593;48.398;10.698;2023-03-04T01:39:18;96557.03;;;9.27
20867;BMP280;10593;48.398;10.698;2023-03-04T01:41:44;96551.94;;;9.24
20867;BMP280;10593;48.398;10.698;2023-03-04T01:44:11;96552.81;;;9.23
20867;BMP280;10593;48.398;10.698;2023-03-04T01:46:41;96546.84;;;9.22
20867;BMP280;10593;48.398;10.698;2023-03-04T01:49:12;96544.28;;;9.19
20867;BMP280;10593;48.398;10.698;2023-03-04T01:51:41;96545.16;;;9.18
20867;BMP280;10593;48.398;10.698;2023-03-04T01:54:08;96538.34;;;9.16
20867;BMP280;10593;48.398;10.698;2023-03-04T01:56:37;96534.94;;;9.15
20867;BMP280;10593;48.398;10.698;2023-03-04T01:59:32;96529.84;;;9.12
20867;BMP280;10593;48.398;10.698;2023-03-04T02:01:59;96526.44;;;9.10
20867;BMP280;10593;48.398;10.698;2023-03-04T02:04:29;96539.25;;;9.09
20867;BMP280;10593;48.398;10.698;2023-03-04T02:06:56;96527.31;;;9.08
20867;BMP280;10593;48.398;10.698;2023-03-04T02:09:23;96523.03;;;9.05
20867;BMP280;10593;48.398;10.698;2023-03-04T02:11:50;96529.03;;;9.04
20867;BMP280;10593;48.398;10.698;2023-03-04T02:14:17;96533.31;;;9.02
20867;BMP280;10593;48.398;10.698;2023-03-04T02:16:44;96530.78;;;9.01
20867;BMP280;10593;48.398;10.698;2023-03-04T02:19:40;96526.53;;;8.98
20867;BMP280;10593;48.398;10.698;2023-03-04T02:22:07;96525.69;;;8.95
20867;BMP280;10593;48.398;10.698;2023-03-04T02:25:06;96527.41;;;8.93
20867;BMP280;10593;48.398;10.698;2023-03-04T02:27:33;96531.72;;;8.91
20867;BMP280;10593;48.398;10.698;2023-03-04T02:29:59;96524.03;;;8.89
20867;BMP280;10593;48.398;10.698;2023-03-04T02:32:24;96535.13;;;8.88
20867;BMP280;10593;48.398;10.698;2023-03-04T02:34:50;96533.44;;;8.87
20867;BMP280;10593;48.398;10.698;2023-03-04T02:37:18;96535.16;;;8.85
20867;BMP280;10593;48.398;10.698;2023-03-04T02:39:47;96529.16;;;8.85
20867;BMP280;10593;48.398;10.698;2023-03-04T02:42:15;96529.19;;;8.83
20867;BMP280;10593;48.398;10.698;2023-03-04T02:44:44;96534.31;;;8.82
20867;BMP280;10593;48.398;10.698;2023-03-04T02:47:15;96532.63;;;8.81
20867;BMP280;10593;48.398;10.698;2023-03-04T02:49:43;96530.91;;;8.80
20867;BMP280;10593;48.398;10.698;2023-03-04T02:52:27;96531.78;;;8.77
20867;BMP280;10593;48.398;10.698;2023-03-04T02:54:53;96526.69;;;8.76
20867;BMP280;10593;48.398;10.698;2023-03-04T02:57:18;96523.25;;;8.75
20867;BMP280;10593;48.398;10.698;2023-03-04T02:59:44;96525.00;;;8.73
20867;BMP280;10593;48.398;10.698;2023-03-04T03:02:10;96526.69;;;8.73
20867;BMP280;10593;48.398;10.698;2023-03-04T03:04:38;96520.72;;;8.72
20867;BMP280;10593;48.398;10.698;2023-03-04T03:07:05;96519.03;;;8.70
20867;BMP280;10593;48.398;10.698;2023-03-04T03:09:31;96518.19;;;8.69
20867;BMP280;10593;48.398;10.698;2023-03-04T03:11:56;96520.75;;;8.68
20867;BMP280;10593;48.398;10.698;2023-03-04T03:14:22;96519.06;;;8.67
20867;BMP280;10593;48.398;10.698;2023-03-04T03:16:48;96525.03;;;8.66
20867;BMP280;10593;48.398;10.698;2023-03-04T03:19:13;96527.59;;;8.64
20867;BMP280;10593;48.398;10.698;2023-03-04T03:21:39;96525.91;;;8.63
20867;BMP280;10593;48.398;10.698;2023-03-04T03:24:05;96521.63;;;8.62
20867;BMP280;10593;48.398;10.698;2023-03-04T03:26:30;96524.22;;;8.61
20867;BMP280;10593;48.398;10.698;2023-03-04T03:28:56;96525.91;;;8.59
20867;BMP280;10593;48.398;10.698;2023-03-04T03:31:21;96531.06;;;8.57
20867;BMP280;10593;48.398;10.698;2023-03-04T03:33:47;96523.38;;;8.57
20867;BMP280;10593;48.398;10.698;2023-03-04T03:36:13;96520.81;;;8.56
20867;BMP280;10593;48.398;10.698;2023-03-04T03:38:38;96524.25;;;8.55
20867;BMP280;10593;48.398;10.698;2023-03-04T03:41:04;96522.53;;;8.54
20867;BMP280;10593;48.398;10.698;2023-03-04T03:43:30;96523.41;;;8.51
20867;BMP280;10593;48.398;10.698;2023-03-04T03:45:55;96520.00;;;8.51
20867;BMP280;10593;48.398;10.698;2023-03-04T03:48:21;96521.69;;;8.50
20867;BMP280;10593;48.398;10.698;2023-03-04T03:50:47;96514.03;;;8.49
20867;BMP280;10593;48.398;10.698;2023-03-04T03:53:12;96515.78;;;8.47
20867;BMP280;10593;48.398;10.698;2023-03-04T03:55:38;96518.34;;;8.47
20867;BMP280;10593;48.398;10.698;2023-03-04T03:58:04;96524.28;;;8.46
20867;BMP280;10593;48.398;10.698;2023-03-04T04:00:30;96515.75;;;8.44
20867;BMP280;10593;48.398;10.698;2023-03-04T04:02:59;96519.19;;;8.43
20867;BMP280;10593;48.398;10.698;2023-03-04T04:05:25;96516.66;;;8.41
20867;BMP280;10593;48.398;10.698;2023-03-04T04:07:51;96516.66;;;8.40
20867;BMP280;10593;48.398;10.698;2023-03-04T04:10:16;96517.50;;;8.39
20867;BMP280;10593;48.398;10.698;2023-03-04T04:12:42;96514.94;;;8.37
20867;BMP280;10593;48.398;10.698;2023-03-04T04:15:11;96512.41;;;8.36
20867;BMP280;10593;48.398;10.698;2023-03-04T04:17:37;96517.53;;;8.36
20867;BMP280;10593;48.398;10.698;2023-03-04T04:20:04;96512.41;;;8.33
20867;BMP280;10593;48.398;10.698;2023-03-04T04:22:30;96522.63;;;8.33
20867;BMP280;10593;48.398;10.698;2023-03-04T04:24:56;96516.69;;;8.31
20867;BMP280;10593;48.398;10.698;2023-03-04T04:27:21;96519.28;;;8.29
20867;BMP280;10593;48.398;10.698;2023-03-04T04:29:47;96520.97;;;8.29
20867;BMP280;10593;48.398;10.698;2023-03-04T04:32:13;96530.34;;;8.27
20867;BMP280;10593;48.398;10.698;2023-03-04T04:34:38;96524.41;;;8.25
20867;BMP280;10593;48.398;10.698;2023-03-04T04:37:04;96518.41;;;8.24
20867;BMP280;10593;48.398;10.698;2023-03-04T04:39:30;96514.19;;;8.22
20867;BMP280;10593;48.398;10.698;2023-03-04T04:41:55;96512.47;;;8.23
20867;BMP280;10593;48.398;10.698;2023-03-04T04:44:21;96515.91;;;8.20
20867;BMP280;10593;48.398;10.698;2023-03-04T04:46:47;96506.50;;;8.19
20867;BMP280;10593;48.398;10.698;2023-03-04T04:49:13;96510.75;;;8.17
20867;BMP280;10593;48.398;10.698;2023-03-04T04:51:39;96509.03;;;8.16
20867;BMP280;10593;48.398;10.698;2023-03-04T04:54:06;96515.88;;;8.16
20867;BMP280;10593;48.398;10.698;2023-03-04T04:56:32;96512.50;;;8.14
20867;BMP280;10593;48.398;10.698;2023-03-04T04:59:02;96529.53;;;8.13
20867;BMP280;10593;48.398;10.698;2023-03-04T05:01:29;96514.19;;;8.10
20867;BMP280;10593;48.398;10.698;2023-03-04T05:03:55;96515.91;;;8.10
20867;BMP280;10593;48.398;10.698;2023-03-04T05:06:22;96515.91;;;8.08
20867;BMP280;10593;48.398;10.698;2023-03-04T05:08:49;96509.09;;;8.07
20867;BMP280;10593;48.398;10.698;2023-03-04T05:11:16;96513.34;;;8.05
20867;BMP280;10593;48.398;10.698;2023-03-04T05:13:41;96516.75;;;8.04
20867;BMP280;10593;48.398;10.698;2023-03-04T05:16:08;96522.75;;;8.03
20867;BMP280;10593;48.398;10.698;2023-03-04T05:18:34;96529.56;;;8.01
20867;BMP280;10593;48.398;10.698;2023-03-04T05:21:02;96532.13;;;8.01
20867;BMP280;10593;48.398;10.698;2023-03-04T05:23:32;96529.56;;;8.00
20867;BMP280;10593;48.398;10.698;2023-03-04T05:25:58;96529.59;;;7.98
20867;BMP280;10593;48.398;10.698;2023-03-04T05:28:24;96524.47;;;7.97
20867;BMP280;10593;48.398;10.698;2023-03-04T05:30:50;96523.63;;;7.95
20867;BMP280;10593;48.398;10.698;2023-03-04T05:33:17;96522.78;;;7.94
20867;BMP280;10593;48.398;10.698;2023-03-04T05:35:44;96523.66;;;7.93
20867;BMP280;10593;48.398;10.698;2023-03-04T05:38:14;96526.19;;;7.90
20867;BMP280;10593;48.398;10.698;2023-03-04T05:40:41;96527.06;;;7.89
20867;BMP280;10593;48.398;10.698;2023-03-04T05:43:08;96530.47;;;7.88
20867;BMP280;10593;48.398;10.698;2023-03-04T05:45:34;96527.91;;;7.88
20867;BMP280;10593;48.398;10.698;2023-03-04T05:48:00;96528.75;;;7.86
20867;BMP280;10593;48.398;10.698;2023-03-04T05:50:26;96536.44;;;7.86
20867;BMP280;10593;48.398;10.698;2023-03-04T05:52:52;96534.75;;;7.83
20867;BMP280;10593;48.398;10.698;2023-03-04T05:55:18;96535.63;;;7.82
20867;BMP280;10593;48.398;10.698;2023-03-04T05:57:44;96537.34;;;7.80
20867;BMP280;10593;48.398;10.698;2023-03-04T06:00:12;96535.59;;;7.79
20867;BMP280;10593;48.398;10.698;2023-03-04T06:02:39;96536.47;;;7.78
20867;BMP280;10593;48.398;10.698;2023-03-04T06:05:07;96537.31;;;7.77
20867;BMP280;10593;48.398;10.698;2023-03-04T06:07:33;96539.03;;;7.75
20867;BMP280;10593;48.398;10.698;2023-03-04T06:09:59;96545.88;;;7.75
20867;BMP280;10593;48.398;10.698;2023-03-04T06:12:25;96547.56;;;7.74
20867;BMP280;10593;48.398;10.698;2023-03-04T06:14:51;96553.53;;;7.72
20867;BMP280;10593;48.398;10.698;2023-03-04T06:17:16;96553.53;;;7.70
20867;BMP280;10593;48.398;10.698;2023-03-04T06:19:42;96551.00;;;7.70
20867;BMP280;10593;48.398;10.698;2023-03-04T06:22:09;96551.84;;;7.68
20867;BMP280;10593;48.398;10.698;2023-03-04T06:24:35;96554.38;;;7.68
20867;BMP280;10593;48.398;10.698;2023-03-04T06:27:01;96550.13;;;7.67
20867;BMP280;10593;48.398;10.698;2023-03-04T06:29:27;96555.25;;;7.67
20867;BMP280;10593;48.398;10.698;2023-03-04T06:31:52;96559.53;;;7.65
20867;BMP280;10593;48.398;10.698;2023-03-04T06:34:18;96561.22;;;7.64
20867;BMP280;10593;48.398;10.698;2023-03-04T06:36:44;96562.06;;;7.63
20867;BMP280;10593;48.398;10.698;2023-03-04T06:39:10;96565.47;;;7.62
20867;BMP280;10593;48.398;10.698;2023-03-04T06:41:36;96567.19;;;7.63
20867;BMP280;10593;48.398;10.698;2023-03-04T06:44:03;96564.63;;;7.62
20867;BMP280;10593;48.398;10.698;2023-03-04T06:46:28;96564.63;;;7.62
20867;BMP280;10593;48.398;10.698;2023-03-04T06:48:55;96565.47;;;7.62
20867;BMP280;10593;48.398;10.698;2023-03-04T06:51:20;96571.47;;;7.63
20867;BMP280;10593;48.398;10.698;2023-03-04T06:53:46;96572.31;;;7.62
20867;BMP280;10593;48.398;10.698;2023-03-04T06:56:13;96569.72;;;7.63
20867;BMP280;10593;48.398;10.698;2023-03-04T06:58:43;96573.16;;;7.64
20867;BMP280;10593;48.398;10.698;2023-03-04T07:01:22;96580.81;;;7.65
20867;BMP280;10593;48.398;10.698;2023-03-04T07:03:50;96583.38;;;7.65
20867;BMP280;10593;48.398;10.698;2023-03-04T07:06:19;96592.78;;;7.66
20867;BMP280;10593;48.398;10.698;2023-03-04T07:08:46;96589.34;;;7.67
20867;BMP280;10593;48.398;10.698;2023-03-04T07:11:12;96591.88;;;7.69
20867;BMP280;10593;48.398;10.698;2023-03-04T07:13:39;96594.47;;;7.70
20867;BMP280;10593;48.398;10.698;2023-03-04T07:16:07;96604.69;;;7.73
20867;BMP280;10593;48.398;10.698;2023-03-04T07:18:33;96597.00;;;7.73
20867;BMP280;10593;48.398;10.698;2023-03-04T07:20:58;96597.00;;;7.78
20867;BMP280;10593;48.398;10.698;2023-03-04T07:23:24;96600.41;;;7.78
20867;BMP280;10593;48.398;10.698;2023-03-04T07:25:50;96597.84;;;7.80
20867;BMP280;10593;48.398;10.698;2023-03-04T07:28:17;96601.25;;;7.83
20867;BMP280;10593;48.398;10.698;2023-03-04T07:30:43;96602.09;;;7.85
20867;BMP280;10593;48.398;10.698;2023-03-04T07:33:09;96606.38;;;7.86
20867;BMP280;10593;48.398;10.698;2023-03-04T07:35:35;96602.94;;;7.87
20867;BMP280;10593;48.398;10.698;2023-03-04T07:38:00;96609.75;;;7.88
20867;BMP280;10593;48.398;10.698;2023-03-04T07:40:26;96604.66;;;7.90
20867;BMP280;10593;48.398;10.698;2023-03-04T07:42:54;96607.19;;;7.91
20867;BMP280;10593;48.398;10.698;2023-03-04T07:45:21;96614.88;;;7.94
20867;BMP280;10593;48.398;10.698;2023-03-04T07:47:47;96602.94;;;7.96
20867;BMP280;10593;48.398;10.698;2023-03-04T07:50:14;96609.75;;;7.99
20867;BMP280;10593;48.398;10.698;2023-03-04T07:52:42;96611.44;;;8.01
20867;BMP280;10593;48.398;10.698;2023-03-04T07:55:10;96618.25;;;8.05
20867;BMP280;10593;48.398;10.698;2023-03-04T07:57:42;96613.16;;;8.08
20867;BMP280;10593;48.398;10.698;2023-03-04T08:00:11;96623.38;;;8.11
20867;BMP280;10593;48.398;10.698;2023-03-04T08:02:37;96617.41;;;8.14
20867;BMP280;10593;48.398;10.698;2023-03-04T08:05:04;96617.41;;;8.18
20867;BMP280;10593;48.398;10.698;2023-03-04T08:07:29;96613.13;;;8.22
20867;BMP280;10593;48.398;10.698;2023-03-04T08:09:55;96613.13;;;8.24
20867;BMP280;10593;48.398;10.698;2023-03-04T08:12:21;96614.84;;;8.28
20867;BMP280;10593;48.398;10.698;2023-03-04T08:14:49;96620.78;;;8.32
20867;BMP280;10593;48.398;10.698;2023-03-04T08:17:14;96610.53;;;8.36
20867;BMP280;10593;48.398;10.698;2023-03-04T08:19:40;96610.50;;;8.39
20867;BMP280;10593;48.398;10.698;2023-03-04T08:22:06;96610.53;;;8.42
20867;BMP280;10593;48.398;10.698;2023-03-04T08:24:32;96603.66;;;8.46
20867;BMP280;10593;48.398;10.698;2023-03-04T08:26:58;96608.75;;;8.50
20867;BMP280;10593;48.398;10.698;2023-03-04T08:29:24;96611.31;;;8.55
20867;BMP280;10593;48.398;10.698;2023-03-04T08:31:52;96618.13;;;8.59
20867;BMP280;10593;48.398;10.698;2023-03-04T08:34:22;96607.00;;;8.61
20867;BMP280;10593;48.398;10.698;2023-03-04T08:36:48;96614.69;;;8.66
20867;BMP280;10593;48.398;10.698;2023-03-04T08:39:17;96616.38;;;8.68
20867;BMP280;10593;48.398;10.698;2023-03-04T08:41:45;96615.50;;;8.71
20867;BMP280;10593;48.398;10.698;2023-03-04T08:44:11;96612.94;;;8.74
20867;BMP280;10593;48.398;10.698;2023-03-04T08:46:39;96621.47;;;8.76
20867;BMP280;10593;48.398;10.698;2023-03-04T08:49:06;96623.16;;;8.80
20867;BMP280;10593;48.398;10.698;2023-03-04T08:51:32;96615.47;;;8.81
20867;BMP280;10593;48.398;10.698;2023-03-04T08:54:01;96623.09;;;8.86
20867;BMP280;10593;48.398;10.698;2023-03-04T08:56:27;96623.09;;;8.87
20867;BMP280;10593;48.398;10.698;2023-03-04T08:58:53;96626.50;;;8.91
20867;BMP280;10593;48.398;10.698;2023-03-04T09:01:18;96628.19;;;8.93
20867;BMP280;10593;48.398;10.698;2023-03-04T09:03:44;96624.78;;;8.94
20867;BMP280;10593;48.398;10.698;2023-03-04T09:06:15;96633.28;;;8.98
20867;BMP280;10593;48.398;10.698;2023-03-04T09:08:42;96631.56;;;9.00
20867;BMP280;10593;48.398;10.698;2023-03-04T09:11:08;96619.63;;;9.02
20867;BMP280;10593;48.398;10.698;2023-03-04T09:13:35;96624.72;;;9.05
20867;BMP280;10593;48.398;10.698;2023-03-04T09:16:02;96625.56;;;9.07
20867;BMP280;10593;48.398;10.698;2023-03-04T09:18:28;96620.44;;;9.08
20867;BMP280;10593;48.398;10.698;2023-03-04T09:20:54;96623.84;;;9.10
20867;BMP280;10593;48.398;10.698;2023-03-04T09:23:20;96621.25;;;9.12
20867;BMP280;10593;48.398;10.698;2023-03-04T09:25:47;96616.97;;;9.14
20867;BMP280;10593;48.398;10.698;2023-03-04T09:28:14;96622.94;;;9.16
20867;BMP280;10593;48.398;10.698;2023-03-04T09:30:41;96621.22;;;9.18
20867;BMP280;10593;48.398;10.698;2023-03-04T09:33:07;96617.81;;;9.19
20867;BMP280;10593;48.398;10.698;2023-03-04T09:35:32;96616.91;;;9.23
20867;BMP280;10593;48.398;10.698;2023-03-04T09:37:58;96622.88;;;9.25
20867;BMP280;10593;48.398;10.698;2023-03-04T09:40:35;96624.56;;;9.27
20867;BMP280;10593;48.398;10.698;2023-03-04T09:43:06;96623.72;;;9.30
20867;BMP280;10593;48.398;10.698;2023-03-04T09:45:51;96621.13;;;9.33
20867;BMP280;10593;48.398;10.698;2023-03-04T09:48:22;96625.38;;;9.35
20867;BMP280;10593;48.398;10.698;2023-03-04T09:51:18;96624.50;;;9.38
20867;BMP280;10593;48.398;10.698;2023-03-04T09:54:29;96621.94;;;9.38
20867;BMP280;10593;48.398;10.698;2023-03-04T09:57:20;96622.75;;;9.40
20867;BMP280;10593;48.398;10.698;2023-03-04T10:00:13;96619.34;;;9.41
20867;BMP280;10593;48.398;10.698;2023-03-04T10:05:32;96621.91;;;9.44
20867;BMP280;10593;48.398;10.698;2023-03-04T10:08:16;96619.31;;;9.45
20867;BMP280;10593;48.398;10.698;2023-03-04T10:10:47;96624.44;;;9.48
20867;BMP280;10593;48.398;10.698;2023-03-04T10:13:24;96618.41;;;9.51
20867;BMP280;10593;48.398;10.698;2023-03-04T10:15:51;96619.25;;;9.53
20867;BMP280;10593;48.398;10.698;2023-03-04T10:18:23;96620.13;;;9.55
20867;BMP280;10593;48.398;10.698;2023-03-04T10:21:01;96617.50;;;9.58
20867;BMP280;10593;48.398;10.698;2023-03-04T10:23:30;96613.22;;;9.58
20867;BMP280;10593;48.398;10.698;2023-03-04T10:25:58;96605.53;;;9.61
20867;BMP280;10593;48.398;10.698;2023-03-04T10:28:29;96613.19;;;9.63
20867;BMP280;10593;48.398;10.698;2023-03-04T10:33:38;96615.72;;;9.66
20867;BMP280;10593;48.398;10.698;2023-03-04T10:36:35;96602.88;;;9.66
20867;BMP280;10593;48.398;10.698;2023-03-04T10:39:17;96612.28;;;9.67
20867;BMP280;10593;48.398;10.698;2023-03-04T10:41:53;96609.72;;;9.68
20867;BMP280;10593;48.398;10.698;2023-03-04T10:44:19;96602.03;;;9.70
20867;BMP280;10593;48.398;10.698;2023-03-04T10:46:48;96603.69;;;9.72
20867;BMP280;10593;48.398;10.698;2023-03-04T10:49:17;96604.56;;;9.73
20867;BMP280;10593;48.398;10.698;2023-03-04T10:52:01;96610.50;;;9.76
20867;BMP280;10593;48.398;10.698;2023-03-04T10:54:51;96601.94;;;9.76
20867;BMP280;10593;48.398;10.698;2023-03-04T10:57:27;96598.53;;;9.77
20867;BMP280;10593;48.398;10.698;2023-03-04T10:59:57;96598.53;;;9.77
20867;BMP280;10593;48.398;10.698;2023-03-04T11:02:35;96601.06;;;9.80
20867;BMP280;10593;48.398;10.698;2023-03-04T11:05:21;96597.63;;;9.81
20867;BMP280;10593;48.398;10.698;2023-03-04T11:07:57;96593.34;;;9.83
20867;BMP280;10593;48.398;10.698;2023-03-04T11:10:30;96590.75;;;9.84
20867;BMP280;10593;48.398;10.698;2023-03-04T11:13:23;96603.63;;;9.83
20867;BMP280;10593;48.398;10.698;2023-03-04T11:16:00;96592.44;;;9.85
20867;BMP280;10593;48.398;10.698;2023-03-04T11:18:49;96588.19;;;9.86
20867;BMP280;10593;48.398;10.698;2023-03-04T11:21:27;96589.88;;;9.87
20867;BMP280;10593;48.398;10.698;2023-03-04T11:24:07;96587.31;;;9.88
20867;BMP280;10593;48.398;10.698;2023-03-04T11:26:44;96593.28;;;9.89
20867;BMP280;10593;48.398;10.698;2023-03-04T11:32:32;96589.00;;;9.89
20867;BMP280;10593;48.398;10.698;2023-03-04T11:35:28;96583.84;;;9.91
20867;BMP280;10593;48.398;10.698;2023-03-04T11:38:08;96582.97;;;9.92
20867;BMP280;10593;48.398;10.698;2023-03-04T11:40:57;96576.97;;;9.93
20867;BMP280;10593;48.398;10.698;2023-03-04T11:43:36;96576.09;;;9.95
20867;BMP280;10593;48.398;10.698;2023-03-04T11:52:26;96576.09;;;9.97
20867;BMP280;10593;48.398;10.698;2023-03-04T12:00:27;96576.94;;;10.02
20867;BMP280;10593;48.398;10.698;2023-03-04T12:06:50;96562.38;;;10.02
20867;BMP280;10593;48.398;10.698;2023-03-04T12:14:59;96555.47;;;10.06
20867;BMP280;10593;48.398;10.698;2023-03-04T12:20:53;96546.06;;;10.06
20867;BMP280;10593;48.398;10.698;2023-03-04T12:29:31;96538.34;;;10.08
20867;BMP280;10593;48.398;10.698;2023-03-04T12:32:23;96541.78;;;10.10
20867;BMP280;10593;48.398;10.698;2023-03-04T12:35:35;96536.63;;;10.10
20867;BMP280;10593;48.398;10.698;2023-03-04T12:38:52;96529.78;;;10.09
20867;BMP280;10593;48.398;10.698;2023-03-04T12:44:19;96516.06;;;10.13
20867;BMP280;10593;48.398;10.698;2023-03-04T12:50:08;96522.00;;;10.15
20867;BMP280;10593;48.398;10.698;2023-03-04T12:56:49;96516.00;;;10.14
20867;BMP280;10593;48.398;10.698;2023-03-04T12:59:19;96507.44;;;10.17
20867;BMP280;10593;48.398;10.698;2023-03-04T13:14:22;96508.25;;;10.20
20867;BMP280;10593;48.398;10.698;2023-03-04T13:17:43;96504.81;;;10.21
20867;BMP280;10593;48.398;10.698;2023-03-04T13:19:56;96502.25;;;10.23
20867;BMP280;10593;48.398;10.698;2023-03-04T13:25:42;96491.94;;;10.26
20867;BMP280;10593;48.398;10.698;2023-03-04T13:30:43;96493.63;;;10.27
20867;BMP280;10593;48.398;10.698;2023-03-04T13:41:52;96493.56;;;10.30
20867;BMP280;10593;48.398;10.698;2023-03-04T13:47:21;96486.75;;;10.30
20867;BMP280;10593;48.398;10.698;2023-03-04T13:50:31;96485.88;;;10.30
20867;BMP280;10593;48.398;10.698;2023-03-04T13:53:29;96487.56;;;10.31
20867;BMP280;10593;48.398;10.698;2023-03-04T13:58:42;96487.50;;;10.35
20867;BMP280;10593;48.398;10.698;2023-03-04T14:01:28;96486.63;;;10.38
20867;BMP280;10593;48.398;10.698;2023-03-04T14:04:00;96479.75;;;10.39
20867;BMP280;10593;48.398;10.698;2023-03-04T14:06:29;96484.00;;;10.42
20867;BMP280;10593;48.398;10.698;2023-03-04T14:08:56;96487.38;;;10.45
20867;BMP280;10593;48.398;10.698;2023-03-04T14:11:35;96482.22;;;10.47
20867;BMP280;10593;48.398;10.698;2023-03-04T14:14:12;96483.03;;;10.49
20867;BMP280;10593;48.398;10.698;2023-03-04T14:16:46;96482.16;;;10.51
20867;BMP280;10593;48.398;10.698;2023-03-04T14:21:47;96474.41;;;10.54
20867;BMP280;10593;48.398;10.698;2023-03-04T14:24:18;96482.94;;;10.56
20867;BMP280;10593;48.398;10.698;2023-03-04T14:26:45;96478.63;;;10.58
20867;BMP280;10593;48.398;10.698;2023-03-04T14:29:24;96473.47;;;10.60
20867;BMP280;10593;48.398;10.698;2023-03-04T14:31:52;96475.16;;;10.61
20867;BMP280;10593;48.398;10.698;2023-03-04T14:36:49;96467.44;;;10.62
20867;BMP280;10593;48.398;10.698;2023-03-04T14:39:17;96461.44;;;10.63
20867;BMP280;10593;48.398;10.698;2023-03-04T14:41:47;96464.00;;;10.63
20867;BMP280;10593;48.398;10.698;2023-03-04T14:44:34;96459.69;;;10.64
20867;BMP280;10593;48.398;10.698;2023-03-04T14:47:37;96464.84;;;10.64
20867;BMP280;10593;48.398;10.698;2023-03-04T14:50:09;96468.28;;;10.64
20867;BMP280;10593;48.398;10.698;2023-03-04T14:52:44;96458.88;;;10.63
20867;BMP280;10593;48.398;10.698;2023-03-04T14:57:38;96462.25;;;10.64
20867;BMP280;10593;48.398;10.698;2023-03-04T15:05:34;96452.03;;;10.62
20867;BMP280;10593;48.398;10.698;2023-03-04T15:08:27;96453.72;;;10.62
20867;BMP280;10593;48.398;10.698;2023-03-04T15:11:00;96451.16;;;10.62
20867;BMP280;10593;48.398;10.698;2023-03-04T15:13:53;96441.75;;;10.62
20867;BMP280;10593;48.398;10.698;2023-03-04T15:16:23;96444.34;;;10.61
20867;BMP280;10593;48.398;10.698;2023-03-04T15:19:28;96443.47;;;10.60
20867;BMP280;10593;48.398;10.698;2023-03-04T15:22:05;96435.75;;;10.60
20867;BMP280;10593;48.398;10.698;2023-03-04T15:24:31;96450.31;;;10.61
20867;BMP280;10593;48.398;10.698;2023-03-04T15:26:57;96449.47;;;10.61
20867;BMP280;10593;48.398;10.698;2023-03-04T15:29:23;96447.72;;;10.61
20867;BMP280;10593;48.398;10.698;2023-03-04T15:31:48;96458.00;;;10.63
20867;BMP280;10593;48.398;10.698;2023-03-04T15:34:18;96446.91;;;10.62
20867;BMP280;10593;48.398;10.698;2023-03-04T15:36:58;96446.84;;;10.64
20867;BMP280;10593;48.398;10.698;2023-03-04T15:39:24;96441.75;;;10.62
20867;BMP280;10593;48.398;10.698;2023-03-04T15:41:52;96451.16;;;10.63
20867;BMP280;10593;48.398;10.698;2023-03-04T15:44:17;96442.59;;;10.63
20867;BMP280;10593;48.398;10.698;2023-03-04T15:46:43;96441.72;;;10.64
20867;BMP280;10593;48.398;10.698;2023-03-04T15:49:09;96458.88;;;10.63
20867;BMP280;10593;48.398;10.698;2023-03-04T15:51:34;96459.75;;;10.62
20867;BMP280;10593;48.398;10.698;2023-03-04T15:54:00;96458.00;;;10.61
20867;BMP280;10593;48.398;10.698;2023-03-04T15:56:30;96462.31;;;10.61
20867;BMP280;10593;48.398;10.698;2023-03-04T15:59:05;96464.88;;;10.61